createdAt,value
2022-09-15T00:00:49.705Z,95223.63
2022-09-15T00:03:19.087Z,95217.09
2022-09-15T00:05:46.899Z,95219.56
2022-09-15T00:08:14.733Z,95214.06
2022-09-15T00:10:48.819Z,95220.81
2022-09-15T00:13:16.547Z,95213.78
2022-09-15T00:15:44.135Z,95215.75
2022-09-15T00:18:12.145Z,95218.53
2022-09-15T00:20:43.176Z,95215.00
2022-09-15T00:23:12.008Z,95209.16
2022-09-15T00:25:44.200Z,95225.50
2022-09-15T00:28:11.644Z,95225.31
2022-09-15T00:30:42.373Z,95217.44
2022-09-15T00:33:10.063Z,95227.72
2022-09-15T00:35:39.739Z,95223.28
2022-09-15T00:38:10.274Z,95224.78
2022-09-15T00:40:44.999Z,95228.06
2022-09-15T00:43:14.218Z,95220.94
2022-09-15T00:45:42.085Z,95220.94
2022-09-15T00:48:13.423Z,95215.00
2022-09-15T00:50:44.017Z,95216.38
2022-09-15T00:53:15.140Z,95210.69
2022-09-15T00:55:47.313Z,95205.53
2022-09-15T00:58:19.821Z,95205.66
2022-09-15T01:00:53.161Z,95209.63
2022-09-15T01:03:20.689Z,95205.88
2022-09-15T01:05:53.720Z,95198.41
2022-09-15T01:08:30.274Z,95193.72
2022-09-15T01:10:58.520Z,95196.31
2022-09-15T01:13:26.799Z,95194.31
2022-09-15T01:16:03.681Z,95199.38
2022-09-15T01:18:40.898Z,95184.47
2022-09-15T01:21:22.913Z,95184.41
2022-09-15T01:24:35.563Z,95181.72
2022-09-15T01:27:40.383Z,95172.34
2022-09-15T01:30:09.561Z,95179.81
2022-09-15T01:33:06.582Z,95175.66
2022-09-15T01:35:45.562Z,95170.97
2022-09-15T01:38:21.799Z,95159.16
2022-09-15T01:40:53.866Z,95161.00
2022-09-15T01:43:24.746Z,95164.59
2022-09-15T01:45:54.174Z,95173.09
2022-09-15T01:48:25.335Z,95168.50
2022-09-15T01:50:56.856Z,95168.81
2022-09-15T01:53:25.458Z,95164.19
2022-09-15T01:55:57.328Z,95161.81
2022-09-15T01:58:24.830Z,95152.94
2022-09-15T02:00:59.605Z,95145.03
2022-09-15T02:03:33.626Z,95144.03
2022-09-15T02:06:05.036Z,95146.50
2022-09-15T02:08:39.084Z,95146.41
2022-09-15T02:11:15.398Z,95151.41
2022-09-15T02:13:48.804Z,95156.91
2022-09-15T02:16:21.948Z,95154.50
2022-09-15T02:19:12.231Z,95141.91
2022-09-15T02:21:53.898Z,95134.84
2022-09-15T02:24:27.890Z,95137.69
2022-09-15T02:26:56.089Z,95141.78
2022-09-15T02:29:27.194Z,95147.06
2022-09-15T02:32:03.719Z,95145.78
2022-09-15T02:34:36.865Z,95156.75
2022-09-15T02:37:05.997Z,95149.38
2022-09-15T02:39:37.286Z,95142.16
2022-09-15T02:42:05.167Z,95146.38
2022-09-15T02:44:32.997Z,95145.09
2022-09-15T02:47:02.535Z,95147.66
2022-09-15T02:49:30.036Z,95145.44
2022-09-15T02:51:57.488Z,95134.13
2022-09-15T02:54:25.005Z,95140.56
2022-09-15T02:56:52.427Z,95148.94
2022-09-15T02:59:19.853Z,95161.44
2022-09-15T03:01:47.361Z,95166.81
2022-09-15T03:04:16.204Z,95155.47
2022-09-15T03:06:43.868Z,95160.50
2022-09-15T03:09:12.465Z,95144.53
2022-09-15T03:11:39.879Z,95150.94
2022-09-15T03:14:08.158Z,95163.00
2022-09-15T03:16:36.773Z,95167.97
2022-09-15T03:19:05.632Z,95174.78
2022-09-15T03:21:34.769Z,95169.25
2022-09-15T03:24:02.608Z,95157.22
2022-09-15T03:26:30.992Z,95142.31
2022-09-15T03:28:58.413Z,95141.00
2022-09-15T03:31:25.883Z,95142.31
2022-09-15T03:33:55.960Z,95144.94
2022-09-15T03:36:23.402Z,95143.47
2022-09-15T03:38:52.627Z,95138.09
2022-09-15T03:41:20.166Z,95134.81
2022-09-15T03:43:47.627Z,95141.25
2022-09-15T03:46:15.170Z,95147.94
2022-09-15T03:48:42.943Z,95151.03
2022-09-15T03:51:11.419Z,95153.59
2022-09-15T03:53:40.633Z,95150.47
2022-09-15T03:56:11.930Z,95160.25
2022-09-15T03:58:39.546Z,95149.06
2022-09-15T04:01:07.062Z,95154.22
2022-09-15T04:03:37.474Z,95133.78
2022-09-15T04:06:08.204Z,95135.47
2022-09-15T04:08:35.631Z,95143.44
2022-09-15T04:11:05.670Z,95127.63
2022-09-15T04:13:35.107Z,95119.19
2022-09-15T04:16:04.253Z,95109.63
2022-09-15T04:18:33.084Z,95104.44
2022-09-15T04:21:01.573Z,95106.91
2022-09-15T04:23:29.331Z,95103.63
2022-09-15T04:25:57.652Z,95113.41
2022-09-15T04:28:25.895Z,95109.38
2022-09-15T04:30:55.336Z,95109.47
2022-09-15T04:33:23.033Z,95108.56
2022-09-15T04:35:50.451Z,95114.03
2022-09-15T04:38:17.880Z,95115.19
2022-09-15T04:40:45.353Z,95114.16
2022-09-15T04:43:12.787Z,95107.63
2022-09-15T04:45:40.893Z,95110.22
2022-09-15T04:48:09.727Z,95104.81
2022-09-15T04:50:37.170Z,95096.31
2022-09-15T04:53:04.650Z,95092.63
2022-09-15T04:55:32.974Z,95098.09
2022-09-15T04:58:00.487Z,95101.22
2022-09-15T05:00:27.920Z,95110.47
2022-09-15T05:02:55.421Z,95112.69
2022-09-15T05:05:25.101Z,95110.69
2022-09-15T05:07:52.991Z,95120.47
2022-09-15T05:10:21.145Z,95125.88
2022-09-15T05:12:48.591Z,95118.03
2022-09-15T05:15:16.255Z,95134.28
2022-09-15T05:17:43.693Z,95127.84
2022-09-15T05:20:11.148Z,95127.63
2022-09-15T05:22:41.994Z,95132.41
2022-09-15T05:25:10.148Z,95127.38
2022-09-15T05:27:39.216Z,95129.22
2022-09-15T05:30:34.961Z,95128.88
2022-09-15T05:32:56.156Z,95126.06
2022-09-15T05:35:24.470Z,95128.97
2022-09-15T05:37:53.244Z,95129.69
2022-09-15T05:40:22.122Z,95119.72
2022-09-15T05:42:49.619Z,95109.47
2022-09-15T05:45:17.232Z,95112.22
2022-09-15T05:47:44.687Z,95110.00
2022-09-15T05:50:12.224Z,95114.84
2022-09-15T05:52:40.091Z,95113.69
2022-09-15T05:55:10.004Z,95117.88
2022-09-15T05:57:37.445Z,95113.03
2022-09-15T06:00:05.898Z,95110.06
2022-09-15T06:02:33.536Z,95101.16
2022-09-15T06:05:01.056Z,95105.66
2022-09-15T06:07:28.499Z,95095.69
2022-09-15T06:09:56.156Z,95102.06
2022-09-15T06:12:25.037Z,95113.63
2022-09-15T06:14:53.116Z,95112.28
2022-09-15T06:17:20.781Z,95120.38
2022-09-15T06:19:48.216Z,95110.03
2022-09-15T06:22:15.901Z,95105.41
2022-09-15T06:24:43.345Z,95115.72
2022-09-15T06:27:10.790Z,95111.47
2022-09-15T06:29:39.554Z,95106.63
2022-09-15T06:32:07.132Z,95112.81
2022-09-15T06:34:34.623Z,95111.19
2022-09-15T06:37:02.072Z,95116.47
2022-09-15T06:39:29.544Z,95123.16
2022-09-15T06:42:02.724Z,95127.00
2022-09-15T06:44:31.629Z,95119.16
2022-09-15T06:47:00.411Z,95118.94
2022-09-15T06:49:28.842Z,95114.28
2022-09-15T06:51:56.403Z,95117.69
2022-09-15T06:54:23.969Z,95127.19
2022-09-15T06:56:51.491Z,95132.38
2022-09-15T06:59:18.985Z,95129.00
2022-09-15T07:01:46.550Z,95136.50
2022-09-15T07:04:15.471Z,95132.69
2022-09-15T07:06:42.900Z,95145.47
2022-09-15T07:09:11.915Z,95141.06
2022-09-15T07:11:39.376Z,95141.97
2022-09-15T07:14:07.409Z,95144.41
2022-09-15T07:16:34.982Z,95149.19
2022-09-15T07:19:03.701Z,95147.66
2022-09-15T07:21:32.663Z,95139.44
2022-09-15T07:24:03.881Z,95148.16
2022-09-15T07:26:34.747Z,95150.56
2022-09-15T07:29:03.805Z,95155.63
2022-09-15T07:31:33.285Z,95163.19
2022-09-15T07:34:02.157Z,95161.69
2022-09-15T07:36:29.910Z,95159.66
2022-09-15T07:38:58.890Z,95158.97
2022-09-15T07:41:28.611Z,95162.53
2022-09-15T07:43:57.707Z,95160.75
2022-09-15T07:46:26.894Z,95170.34
2022-09-15T07:48:56.242Z,95168.22
2022-09-15T07:51:23.976Z,95161.13
2022-09-15T07:53:52.563Z,95164.75
2022-09-15T07:56:22.317Z,95166.34
2022-09-15T07:58:50.885Z,95167.69
2022-09-15T08:01:19.646Z,95168.91
2022-09-15T08:03:49.421Z,95178.19
2022-09-15T08:06:18.036Z,95182.63
2022-09-15T08:08:45.519Z,95181.97
2022-09-15T08:11:18.855Z,95178.44
2022-09-15T08:13:49.320Z,95188.16
2022-09-15T08:16:20.110Z,95177.16
2022-09-15T08:18:48.121Z,95191.59
2022-09-15T08:21:17.444Z,95191.34
2022-09-15T08:23:45.479Z,95193.38
2022-09-15T08:26:14.574Z,95194.03
2022-09-15T08:28:42.906Z,95180.16
2022-09-15T08:31:13.742Z,95194.69
2022-09-15T08:33:45.456Z,95193.94
2022-09-15T08:36:13.860Z,95186.78
2022-09-15T08:38:42.848Z,95198.72
2022-09-15T08:41:15.401Z,95205.66
2022-09-15T08:43:47.461Z,95208.22
2022-09-15T08:46:22.707Z,95205.63
2022-09-15T08:49:03.121Z,95213.91
2022-09-15T08:51:37.032Z,95209.63
2022-09-15T08:54:12.233Z,95217.63
2022-09-15T08:56:42.269Z,95221.16
2022-09-15T08:59:13.315Z,95219.47
2022-09-15T09:01:55.212Z,95220.16
2022-09-15T09:04:36.660Z,95224.09
2022-09-15T09:07:19.480Z,95244.28
2022-09-15T09:09:53.557Z,95246.28
2022-09-15T09:12:33.380Z,95246.16
2022-09-15T09:15:15.041Z,95255.81
2022-09-15T09:18:05.148Z,95258.75
2022-09-15T09:20:42.241Z,95251.75
2022-09-15T09:23:15.316Z,95244.41
2022-09-15T09:25:44.410Z,95238.69
2022-09-15T09:28:24.663Z,95250.66
2022-09-15T09:30:52.371Z,95274.41
2022-09-15T09:33:30.326Z,95266.75
2022-09-15T09:36:02.163Z,95263.94
2022-09-15T09:38:33.281Z,95257.41
2022-09-15T09:41:02.582Z,95269.75
2022-09-15T09:43:31.527Z,95275.59
2022-09-15T09:45:59.639Z,95269.16
2022-09-15T09:48:30.423Z,95263.47
2022-09-15T09:50:57.944Z,95261.69
2022-09-15T09:53:30.899Z,95256.97
2022-09-15T09:56:17.420Z,95256.41
2022-09-15T09:58:46.018Z,95254.97
2022-09-15T10:01:15.649Z,95267.50
2022-09-15T10:03:45.228Z,95259.16
2022-09-15T10:06:15.644Z,95263.84
2022-09-15T10:08:54.959Z,95271.34
2022-09-15T10:11:23.241Z,95268.75
2022-09-15T10:13:53.429Z,95264.53
2022-09-15T10:16:22.421Z,95266.97
2022-09-15T10:18:54.391Z,95270.31
2022-09-15T10:21:25.377Z,95277.19
2022-09-15T10:23:53.076Z,95264.81
2022-09-15T10:26:23.617Z,95267.78
2022-09-15T10:29:12.223Z,95265.59
2022-09-15T10:31:40.721Z,95263.19
2022-09-15T10:34:31.472Z,95262.16
2022-09-15T10:37:14.916Z,95266.75
2022-09-15T10:39:52.565Z,95275.34
2022-09-15T10:42:46.016Z,95278.25
2022-09-15T10:45:19.806Z,95280.09
2022-09-15T10:48:03.172Z,95291.44
2022-09-15T10:50:41.228Z,95277.91
2022-09-15T10:53:17.730Z,95291.44
2022-09-15T10:55:56.062Z,95283.38
2022-09-15T10:58:45.788Z,95280.69
2022-09-15T11:01:45.535Z,95264.38
2022-09-15T11:04:31.245Z,95269.47
2022-09-15T11:07:06.449Z,95280.19
2022-09-15T11:09:37.491Z,95274.91
2022-09-15T11:12:17.727Z,95267.88
2022-09-15T11:14:55.960Z,95270.63
2022-09-15T11:17:36.341Z,95267.06
2022-09-15T11:20:24.472Z,95270.97
2022-09-15T11:22:59.863Z,95258.22
2022-09-15T11:25:31.394Z,95270.38
2022-09-15T11:28:04.482Z,95263.47
2022-09-15T11:30:36.863Z,95253.69
2022-09-15T11:33:10.116Z,95249.97
2022-09-15T11:35:45.805Z,95236.22
2022-09-15T11:38:24.190Z,95232.00
2022-09-15T11:40:57.892Z,95249.47
2022-09-15T11:43:33.413Z,95268.63
2022-09-15T11:46:07.155Z,95267.28
2022-09-15T11:48:40.958Z,95250.72
2022-09-15T11:51:09.183Z,95245.22
2022-09-15T11:53:42.013Z,95242.97
2022-09-15T11:56:22.351Z,95243.81
2022-09-15T11:59:06.233Z,95244.38
2022-09-15T12:01:40.937Z,95252.38
2022-09-15T12:04:13.837Z,95250.59
2022-09-15T12:06:47.267Z,95239.41
2022-09-15T12:09:18.510Z,95234.16
2022-09-15T12:11:48.508Z,95247.06
2022-09-15T12:14:20.107Z,95245.44
2022-09-15T12:16:47.835Z,95255.53
2022-09-15T12:19:23.995Z,95249.75
2022-09-15T12:21:58.819Z,95261.69
2022-09-15T12:24:37.243Z,95253.94
2022-09-15T12:27:05.453Z,95263.00
2022-09-15T12:29:41.900Z,95251.28
2022-09-15T12:32:20.064Z,95261.16
2022-09-15T12:34:59.134Z,95254.16
2022-09-15T12:37:30.583Z,95250.22
2022-09-15T12:39:59.450Z,95241.97
2022-09-15T12:42:31.200Z,95243.47
2022-09-15T12:45:01.191Z,95242.41
2022-09-15T12:47:34.984Z,95243.66
2022-09-15T12:50:09.788Z,95238.31
2022-09-15T12:52:45.752Z,95238.38
2022-09-15T12:55:21.839Z,95251.16
2022-09-15T12:57:53.608Z,95251.25
2022-09-15T13:00:33.630Z,95244.09
2022-09-15T13:03:02.440Z,95246.00
2022-09-15T13:05:53.492Z,95255.44
2022-09-15T13:08:46.636Z,95257.50
2022-09-15T13:11:18.567Z,95270.56
2022-09-15T13:13:50.679Z,95265.88
2022-09-15T13:16:25.451Z,95263.75
2022-09-15T13:19:05.302Z,95262.63
2022-09-15T13:21:35.779Z,95267.59
2022-09-15T13:24:08.031Z,95278.72
2022-09-15T13:26:38.044Z,95277.16
2022-09-15T13:29:07.306Z,95281.66
2022-09-15T13:31:44.901Z,95269.47
2022-09-15T13:40:42.916Z,95256.44
2022-09-15T13:43:40.844Z,95275.09
2022-09-15T13:46:20.766Z,95259.44
2022-09-15T13:48:58.805Z,95272.28
2022-09-15T13:51:29.020Z,95266.09
2022-09-15T13:54:00.133Z,95265.66
2022-09-15T13:56:31.011Z,95272.44
2022-09-15T13:59:08.083Z,95280.22
2022-09-15T14:01:40.205Z,95278.06
2022-09-15T14:04:12.724Z,95288.88
2022-09-15T14:06:43.122Z,95298.66
2022-09-15T14:09:15.477Z,95294.06
2022-09-15T14:11:44.343Z,95310.47
2022-09-15T14:14:32.031Z,95306.09
2022-09-15T14:16:59.558Z,95294.66
2022-09-15T14:19:33.610Z,95296.63
2022-09-15T14:22:02.317Z,95311.53
2022-09-15T14:24:31.763Z,95309.50
2022-09-15T14:27:03.332Z,95304.34
2022-09-15T14:29:32.252Z,95310.34
2022-09-15T14:32:03.699Z,95306.03
2022-09-15T14:34:35.925Z,95303.28
2022-09-15T14:37:08.141Z,95302.84
2022-09-15T14:39:37.535Z,95286.25
2022-09-15T14:42:20.333Z,95321.59
2022-09-15T14:47:40.072Z,95329.13
2022-09-15T14:50:09.690Z,95342.19
2022-09-15T14:52:41.445Z,95359.72
2022-09-15T14:55:15.447Z,95364.50
2022-09-15T14:57:49.756Z,95345.19
2022-09-15T15:00:22.410Z,95345.72
2022-09-15T15:03:00.950Z,95353.50
2022-09-15T15:05:34.212Z,95349.59
2022-09-15T15:08:04.612Z,95348.78
2022-09-15T15:10:35.865Z,95371.16
2022-09-15T15:13:07.977Z,95371.38
2022-09-15T15:15:39.048Z,95367.50
2022-09-15T15:18:31.594Z,95371.34
2022-09-15T15:21:00.121Z,95378.94
2022-09-15T15:23:28.638Z,95381.38
2022-09-15T15:26:26.863Z,95370.81
2022-09-15T15:28:54.409Z,95375.75
2022-09-15T15:31:25.747Z,95383.69
2022-09-15T15:33:55.810Z,95379.78
2022-09-15T15:36:25.004Z,95375.72
2022-09-15T15:38:54.518Z,95379.28
2022-09-15T15:41:24.896Z,95372.56
2022-09-15T15:44:02.967Z,95382.78
2022-09-15T15:46:50.288Z,95385.97
2022-09-15T15:49:18.647Z,95376.63
2022-09-15T15:51:46.359Z,95378.13
2022-09-15T15:54:14.432Z,95385.38
2022-09-15T15:56:42.742Z,95376.75
2022-09-15T15:59:13.084Z,95374.63
2022-09-15T16:01:40.668Z,95377.81
2022-09-15T16:04:12.132Z,95371.38
2022-09-15T16:06:40.147Z,95378.34
2022-09-15T16:09:07.951Z,95381.84
2022-09-15T16:11:35.580Z,95375.84
2022-09-15T16:14:03.103Z,95378.38
2022-09-15T16:16:30.665Z,95388.72
2022-09-15T16:18:58.211Z,95381.44
2022-09-15T16:21:32.168Z,95387.41
2022-09-15T16:23:59.631Z,95390.63
2022-09-15T16:26:27.141Z,95393.16
2022-09-15T16:28:54.715Z,95403.81
2022-09-15T16:31:22.194Z,95402.16
2022-09-15T16:33:49.675Z,95405.78
2022-09-15T16:36:18.467Z,95404.06
2022-09-15T16:38:47.301Z,95409.00
2022-09-15T16:41:17.269Z,95412.63
2022-09-15T16:43:45.744Z,95416.81
2022-09-15T16:46:14.928Z,95427.97
2022-09-15T16:48:47.003Z,95428.38
2022-09-15T16:51:26.741Z,95428.31
2022-09-15T16:53:57.480Z,95422.50
2022-09-15T16:56:24.985Z,95422.97
2022-09-15T16:58:58.767Z,95421.91
2022-09-15T17:01:27.597Z,95422.16
2022-09-15T17:03:55.789Z,95421.94
2022-09-15T17:06:23.408Z,95422.97
2022-09-15T17:08:50.896Z,95433.09
2022-09-15T17:11:23.728Z,95436.56
2022-09-15T17:13:51.212Z,95445.63
2022-09-15T17:16:20.276Z,95439.97
2022-09-15T17:18:48.982Z,95427.31
2022-09-15T17:21:18.341Z,95448.13
2022-09-15T17:23:47.802Z,95455.94
2022-09-15T17:26:19.446Z,95454.53
2022-09-15T17:28:48.803Z,95461.72
2022-09-15T17:31:18.234Z,95469.94
2022-09-15T17:33:46.473Z,95472.41
2022-09-15T17:36:14.863Z,95472.31
2022-09-15T17:38:42.642Z,95476.03
2022-09-15T17:41:14.513Z,95466.97
2022-09-15T17:43:41.974Z,95461.22
2022-09-15T17:46:10.806Z,95470.97
2022-09-15T17:48:38.990Z,95460.25
2022-09-15T17:51:07.056Z,95469.47
2022-09-15T17:53:34.603Z,95476.69
2022-09-15T17:56:02.361Z,95473.03
2022-09-15T17:58:31.359Z,95489.97
2022-09-15T18:00:59.486Z,95476.31
2022-09-15T18:03:31.057Z,95473.38
2022-09-15T18:06:00.668Z,95478.03
2022-09-15T18:08:28.751Z,95484.28
2022-09-15T18:10:56.600Z,95492.94
2022-09-15T18:13:26.827Z,95498.97
2022-09-15T18:15:54.890Z,95503.56
2022-09-15T18:18:24.834Z,95519.84
2022-09-15T18:20:55.181Z,95517.22
2022-09-15T18:23:24.807Z,95508.69
2022-09-15T18:25:52.948Z,95504.19
2022-09-15T18:28:20.693Z,95520.22
2022-09-15T18:30:50.111Z,95519.81
2022-09-15T18:33:19.721Z,95521.84
2022-09-15T18:35:48.330Z,95525.09
2022-09-15T18:38:17.384Z,95524.75
2022-09-15T18:40:46.660Z,95517.47
2022-09-15T18:43:14.135Z,95523.09
2022-09-15T18:45:42.404Z,95536.00
2022-09-15T18:48:12.780Z,95530.69
2022-09-15T18:50:41.958Z,95539.97
2022-09-15T18:53:09.937Z,95535.59
2022-09-15T18:55:41.353Z,95539.16
2022-09-15T18:58:09.161Z,95542.84
2022-09-15T19:00:36.711Z,95539.94
2022-09-15T19:03:06.151Z,95551.09
2022-09-15T19:05:34.144Z,95550.03
2022-09-15T19:08:02.757Z,95557.84
2022-09-15T19:10:31.133Z,95560.94
2022-09-15T19:13:00.055Z,95547.03
2022-09-15T19:15:29.160Z,95542.25
2022-09-15T19:17:56.637Z,95540.81
2022-09-15T19:20:24.075Z,95557.56
2022-09-15T19:22:51.672Z,95565.66
2022-09-15T19:25:19.731Z,95577.97
2022-09-15T19:27:47.841Z,95581.25
2022-09-15T19:30:16.699Z,95581.06
2022-09-15T19:32:44.192Z,95587.19
2022-09-15T19:35:11.720Z,95576.78
2022-09-15T19:37:41.374Z,95574.91
2022-09-15T19:40:11.816Z,95575.13
2022-09-15T19:42:39.828Z,95589.03
2022-09-15T19:45:08.973Z,95586.28
2022-09-15T19:47:38.120Z,95605.28
2022-09-15T19:50:07.934Z,95605.25
2022-09-15T19:52:35.407Z,95605.56
2022-09-15T19:55:03.080Z,95600.25
2022-09-15T19:57:30.591Z,95601.88
2022-09-15T19:59:58.028Z,95607.91
2022-09-15T20:02:25.617Z,95610.88
2022-09-15T20:04:55.013Z,95613.81
2022-09-15T20:07:22.532Z,95612.28
2022-09-15T20:09:52.778Z,95603.19
2022-09-15T20:14:53.180Z,95607.28
2022-09-15T20:17:20.684Z,95615.44
2022-09-15T20:19:48.281Z,95618.38
2022-09-15T20:22:17.076Z,95625.44
2022-09-15T20:24:44.536Z,95621.84
2022-09-15T20:27:11.996Z,95622.91
2022-09-15T20:29:40.152Z,95633.31
2022-09-15T20:32:07.824Z,95636.03
2022-09-15T20:34:35.293Z,95637.66
2022-09-15T20:37:02.740Z,95632.63
2022-09-15T20:39:31.551Z,95628.88
2022-09-15T20:41:59.056Z,95630.91
2022-09-15T20:44:26.965Z,95631.25
2022-09-15T20:46:54.816Z,95632.78
2022-09-15T20:49:22.320Z,95621.88
2022-09-15T20:51:51.523Z,95630.75
2022-09-15T20:54:19.013Z,95625.31
2022-09-15T20:56:47.868Z,95637.16
2022-09-15T20:59:15.666Z,95633.78
2022-09-15T21:01:43.410Z,95621.47
2022-09-15T21:04:11.708Z,95624.75
2022-09-15T21:06:39.814Z,95629.41
2022-09-15T21:09:07.463Z,95630.63
2022-09-15T21:11:35.076Z,95620.16
2022-09-15T21:14:04.324Z,95611.56
2022-09-15T21:16:33.670Z,95606.09
2022-09-15T21:19:01.444Z,95586.00
2022-09-15T21:21:30.965Z,95591.91
2022-09-15T21:24:01.103Z,95603.41
2022-09-15T21:26:30.266Z,95621.88
2022-09-15T21:28:58.158Z,95624.06
2022-09-15T21:31:29.212Z,95640.69
2022-09-15T21:33:57.795Z,95640.38
2022-09-15T21:36:27.483Z,95638.66
2022-09-15T21:38:57.100Z,95640.53
2022-09-15T21:41:26.114Z,95640.66
2022-09-15T21:43:55.256Z,95640.72
2022-09-15T21:46:24.911Z,95642.31
2022-09-15T21:48:54.228Z,95636.72
2022-09-15T21:51:24.925Z,95631.31
2022-09-15T21:53:53.578Z,95640.50
2022-09-15T21:56:21.834Z,95640.19
2022-09-15T21:58:49.928Z,95640.13
2022-09-15T22:01:19.907Z,95633.41
2022-09-15T22:03:50.575Z,95628.56
2022-09-15T22:06:21.404Z,95634.78
2022-09-15T22:08:48.928Z,95648.75
2022-09-15T22:11:16.453Z,95640.13
2022-09-15T22:13:44.793Z,95638.94
2022-09-15T22:16:14.481Z,95640.72
2022-09-15T22:18:42.579Z,95634.53
2022-09-15T22:21:12.663Z,95631.44
2022-09-15T22:23:41.983Z,95628.63
2022-09-15T22:26:11.904Z,95623.97
2022-09-15T22:28:39.915Z,95622.31
2022-09-15T22:31:09.963Z,95628.03
2022-09-15T22:33:38.522Z,95627.72
2022-09-15T22:36:06.876Z,95642.53
2022-09-15T22:38:34.429Z,95636.72
2022-09-15T22:41:06.658Z,95634.59
2022-09-15T22:43:34.206Z,95645.50
2022-09-15T22:46:01.905Z,95649.53
2022-09-15T22:48:29.591Z,95655.81
2022-09-15T22:50:57.186Z,95660.28
2022-09-15T22:53:25.309Z,95650.50
2022-09-15T22:55:54.163Z,95655.66
2022-09-15T22:58:23.018Z,95650.63
2022-09-15T23:00:50.551Z,95649.53
2022-09-15T23:03:18.057Z,95646.53
2022-09-15T23:05:45.552Z,95626.28
2022-09-15T23:08:13.430Z,95620.56
2022-09-15T23:10:40.903Z,95628.69
2022-09-15T23:13:08.511Z,95623.88
2022-09-15T23:15:37.672Z,95621.84
2022-09-15T23:18:05.149Z,95618.13
2022-09-15T23:20:32.741Z,95619.28
2022-09-15T23:23:00.551Z,95617.09
2022-09-15T23:25:28.028Z,95620.22
2022-09-15T23:27:55.510Z,95625.22
2022-09-15T23:30:22.980Z,95622.03
2022-09-15T23:32:51.817Z,95632.31
2022-09-15T23:35:19.295Z,95634.09
2022-09-15T23:37:46.795Z,95639.63
2022-09-15T23:40:14.678Z,95640.00
2022-09-15T23:42:42.175Z,95633.25
2022-09-15T23:45:10.412Z,95632.00
2022-09-15T23:47:37.884Z,95640.13
2022-09-15T23:50:07.528Z,95641.38
2022-09-15T23:52:35.027Z,95630.63
2022-09-15T23:55:02.529Z,95631.09
2022-09-15T23:57:30.007Z,95633.41
2022-09-15T23:59:57.493Z,95635.94
